createdAt,value
2023-03-29T00:00:45.925Z,6.06
2023-03-29T00:01:51.820Z,6.05
2023-03-29T00:02:56.369Z,6.05
2023-03-29T00:04:02.404Z,6.05
2023-03-29T00:05:06.579Z,6.04
2023-03-29T00:06:10.256Z,6.03
2023-03-29T00:07:14.100Z,6.03
2023-03-29T00:08:17.363Z,6.05
2023-03-29T00:09:19.889Z,6.05
2023-03-29T00:10:24.197Z,6.04
2023-03-29T00:11:26.293Z,6.04
2023-03-29T00:12:29.391Z,6.03
2023-03-29T00:13:31.368Z,6.04
2023-03-29T00:14:34.228Z,6.05
2023-03-29T00:15:36.230Z,6.06
2023-03-29T00:16:39.747Z,6.07
2023-03-29T00:17:42.991Z,6.08
2023-03-29T00:18:46.248Z,6.10
2023-03-29T00:19:48.527Z,6.11
2023-03-29T00:20:55.955Z,6.13
2023-03-29T00:21:57.766Z,6.14
2023-03-29T00:23:00.635Z,6.15
2023-03-29T00:24:02.696Z,6.16
2023-03-29T00:25:07.258Z,6.15
2023-03-29T00:26:09.317Z,6.14
2023-03-29T00:27:12.204Z,6.16
2023-03-29T00:28:14.802Z,6.14
2023-03-29T00:29:17.730Z,6.14
2023-03-29T00:30:19.568Z,6.08
2023-03-29T00:31:22.373Z,6.06
2023-03-29T00:32:25.961Z,6.02
2023-03-29T00:33:30.384Z,6.03
2023-03-29T00:34:32.265Z,6.02
2023-03-29T00:35:35.174Z,6.04
2023-03-29T00:36:37.035Z,6.04
2023-03-29T00:37:41.253Z,6.05
2023-03-29T00:38:44.179Z,6.06
2023-03-29T00:39:48.271Z,6.04
2023-03-29T00:40:50.191Z,6.07
2023-03-29T00:41:53.674Z,6.09
2023-03-29T00:42:58.096Z,6.08
2023-03-29T00:44:02.470Z,6.08
2023-03-29T00:45:10.281Z,6.09
2023-03-29T00:46:13.446Z,6.11
2023-03-29T00:47:16.236Z,6.10
2023-03-29T00:48:22.880Z,6.09
2023-03-29T00:49:26.404Z,6.11
2023-03-29T00:50:31.828Z,6.11
2023-03-29T00:51:37.312Z,6.07
2023-03-29T00:52:46.278Z,6.08
2023-03-29T00:53:53.100Z,6.08
2023-03-29T00:54:59.488Z,6.08
2023-03-29T00:56:06.382Z,6.08
2023-03-29T00:57:09.556Z,6.08
2023-03-29T00:58:16.632Z,6.08
2023-03-29T00:59:22.895Z,6.10
2023-03-29T01:00:32.228Z,6.11
2023-03-29T01:01:42.007Z,6.09
2023-03-29T01:02:50.925Z,6.13
2023-03-29T01:03:59.184Z,6.09
2023-03-29T01:05:08.435Z,6.09
2023-03-29T01:06:12.158Z,6.09
2023-03-29T01:07:21.284Z,6.11
2023-03-29T01:08:27.531Z,6.09
2023-03-29T01:09:34.390Z,6.10
2023-03-29T01:10:40.499Z,6.11
2023-03-29T01:11:48.648Z,6.13
2023-03-29T01:12:56.451Z,6.10
2023-03-29T01:14:03.731Z,6.11
2023-03-29T01:15:10.157Z,6.11
2023-03-29T01:16:15.548Z,6.12
2023-03-29T01:17:21.745Z,6.11
2023-03-29T01:18:24.621Z,6.12
2023-03-29T01:19:33.901Z,6.11
2023-03-29T01:20:56.436Z,6.11
2023-03-29T01:22:05.508Z,6.11
2023-03-29T01:23:31.642Z,6.13
2023-03-29T01:24:46.266Z,6.10
2023-03-29T01:25:55.639Z,6.10
2023-03-29T01:27:05.253Z,6.08
2023-03-29T01:28:11.625Z,6.08
2023-03-29T01:29:18.469Z,6.08
2023-03-29T01:30:26.922Z,6.08
2023-03-29T01:31:34.816Z,6.08
2023-03-29T01:32:44.655Z,6.08
2023-03-29T01:33:53.129Z,6.08
2023-03-29T01:35:00.571Z,6.08
2023-03-29T01:36:09.641Z,6.07
2023-03-29T01:37:19.197Z,6.07
2023-03-29T01:38:25.473Z,6.08
2023-03-29T01:39:28.550Z,6.07
2023-03-29T01:40:33.482Z,6.07
2023-03-29T01:41:47.812Z,6.05
2023-03-29T01:42:57.980Z,6.06
2023-03-29T01:44:06.678Z,6.06
2023-03-29T01:45:22.692Z,6.06
2023-03-29T01:46:31.823Z,6.06
2023-03-29T01:47:44.309Z,6.06
2023-03-29T01:48:51.470Z,6.06
2023-03-29T01:50:00.610Z,5.91
2023-03-29T01:51:08.577Z,5.95
2023-03-29T01:52:17.083Z,5.95
2023-03-29T01:53:28.233Z,5.93
2023-03-29T01:54:35.350Z,5.94
2023-03-29T01:55:42.481Z,5.87
2023-03-29T01:56:48.381Z,5.85
2023-03-29T01:57:54.116Z,5.85
2023-03-29T01:59:00.942Z,5.85
2023-03-29T02:00:10.786Z,5.85
2023-03-29T02:01:17.665Z,5.84
2023-03-29T02:02:22.589Z,5.84
2023-03-29T02:03:28.107Z,5.84
2023-03-29T02:04:35.148Z,5.83
2023-03-29T02:05:39.308Z,5.84
2023-03-29T02:06:43.391Z,5.84
2023-03-29T02:07:47.506Z,5.84
2023-03-29T02:08:52.326Z,5.83
2023-03-29T02:09:55.304Z,5.83
2023-03-29T02:10:59.219Z,5.83
2023-03-29T02:12:02.318Z,5.82
2023-03-29T02:13:08.823Z,5.83
2023-03-29T02:14:10.751Z,5.83
2023-03-29T02:15:18.660Z,5.83
2023-03-29T02:16:20.896Z,5.82
2023-03-29T02:17:25.976Z,5.83
2023-03-29T02:18:28.484Z,5.83
2023-03-29T02:19:31.393Z,5.82
2023-03-29T02:20:39.311Z,5.83
2023-03-29T02:21:49.161Z,5.83
2023-03-29T02:22:57.937Z,5.81
2023-03-29T02:24:04.376Z,5.82
2023-03-29T02:25:09.428Z,5.82
2023-03-29T02:26:14.631Z,5.81
2023-03-29T02:27:16.684Z,5.82
2023-03-29T02:28:19.615Z,5.81
2023-03-29T02:29:21.503Z,5.80
2023-03-29T02:30:31.386Z,5.79
2023-03-29T02:31:39.087Z,5.79
2023-03-29T02:32:50.657Z,5.79
2023-03-29T02:33:57.360Z,5.77
2023-03-29T02:35:06.656Z,5.78
2023-03-29T02:36:13.099Z,5.78
2023-03-29T02:37:21.726Z,5.78
2023-03-29T02:38:25.609Z,5.78
2023-03-29T02:39:31.664Z,5.79
2023-03-29T02:40:34.864Z,5.79
2023-03-29T02:41:39.641Z,5.80
2023-03-29T02:42:45.904Z,5.80
2023-03-29T02:43:49.532Z,5.80
2023-03-29T02:44:56.330Z,5.80
2023-03-29T02:46:01.197Z,5.80
2023-03-29T02:47:08.173Z,5.79
2023-03-29T02:48:16.243Z,5.78
2023-03-29T02:49:18.784Z,5.78
2023-03-29T02:50:21.988Z,5.77
2023-03-29T02:51:27.633Z,5.75
2023-03-29T02:52:36.494Z,5.78
2023-03-29T02:53:43.562Z,5.79
2023-03-29T02:54:50.324Z,5.80
2023-03-29T02:55:52.830Z,5.79
2023-03-29T02:56:58.312Z,5.80
2023-03-29T02:58:03.353Z,5.80
2023-03-29T02:59:06.275Z,5.79
2023-03-29T03:00:10.167Z,5.80
2023-03-29T03:01:15.036Z,5.81
2023-03-29T03:02:17.598Z,5.80
2023-03-29T03:03:20.807Z,5.81
2023-03-29T03:04:25.510Z,5.82
2023-03-29T03:05:28.393Z,5.81
2023-03-29T03:06:30.272Z,5.81
2023-03-29T03:07:33.713Z,5.81
2023-03-29T03:08:35.669Z,5.81
2023-03-29T03:09:38.540Z,5.82
2023-03-29T03:10:41.368Z,5.83
2023-03-29T03:11:43.394Z,5.82
2023-03-29T03:12:46.600Z,5.78
2023-03-29T03:13:48.676Z,5.75
2023-03-29T03:14:51.567Z,5.70
2023-03-29T03:15:54.179Z,5.70
2023-03-29T03:16:58.489Z,5.70
2023-03-29T03:18:00.791Z,5.71
2023-03-29T03:19:04.486Z,5.73
2023-03-29T03:20:12.595Z,5.74
2023-03-29T03:21:16.660Z,5.74
2023-03-29T03:22:19.272Z,5.75
2023-03-29T03:23:22.909Z,5.75
2023-03-29T03:24:25.265Z,5.74
2023-03-29T03:25:29.058Z,5.74
2023-03-29T03:26:31.308Z,5.75
2023-03-29T03:27:34.928Z,5.75
2023-03-29T03:28:36.776Z,5.75
2023-03-29T03:29:42.407Z,5.76
2023-03-29T03:30:47.327Z,5.76
2023-03-29T03:31:54.062Z,5.76
2023-03-29T03:33:30.476Z,5.77
2023-03-29T03:35:08.828Z,5.78
2023-03-29T03:36:11.408Z,5.78
2023-03-29T03:37:15.448Z,5.78
2023-03-29T03:38:18.430Z,5.78
2023-03-29T03:39:27.780Z,5.78
2023-03-29T03:40:30.949Z,5.79
2023-03-29T03:41:33.079Z,5.79
2023-03-29T03:42:36.161Z,5.78
2023-03-29T03:43:38.206Z,5.78
2023-03-29T03:44:42.542Z,5.77
2023-03-29T03:46:18.116Z,5.74
2023-03-29T03:47:20.881Z,5.75
2023-03-29T03:48:24.992Z,5.74
2023-03-29T03:49:58.419Z,5.74
2023-03-29T03:51:01.400Z,5.74
2023-03-29T03:52:10.462Z,5.75
2023-03-29T03:53:12.329Z,5.74
2023-03-29T03:54:41.253Z,5.73
2023-03-29T03:56:16.794Z,5.73
2023-03-29T03:57:38.886Z,5.72
2023-03-29T03:58:47.547Z,5.71
2023-03-29T03:59:52.276Z,5.71
2023-03-29T04:01:03.579Z,5.71
2023-03-29T04:02:16.482Z,5.71
2023-03-29T04:03:19.694Z,5.70
2023-03-29T04:04:24.670Z,5.71
2023-03-29T04:05:41.851Z,5.70
2023-03-29T04:06:45.078Z,5.70
2023-03-29T04:08:15.541Z,5.70
2023-03-29T04:09:36.284Z,5.70
2023-03-29T04:11:09.188Z,5.70
2023-03-29T04:12:13.195Z,5.69
2023-03-29T04:13:17.732Z,5.71
2023-03-29T04:14:40.540Z,5.66
2023-03-29T04:15:49.731Z,5.66
2023-03-29T04:16:52.759Z,5.65
2023-03-29T04:18:25.192Z,5.66
2023-03-29T04:19:31.389Z,5.67
2023-03-29T04:20:34.629Z,5.67
2023-03-29T04:21:38.571Z,5.69
2023-03-29T04:22:42.059Z,5.70
2023-03-29T04:23:46.509Z,5.71
2023-03-29T04:24:49.452Z,5.71
2023-03-29T04:26:09.971Z,5.73
2023-03-29T04:27:27.927Z,5.73
2023-03-29T04:28:31.593Z,5.75
2023-03-29T04:29:44.756Z,5.76
2023-03-29T04:30:57.215Z,5.77
2023-03-29T04:32:21.232Z,5.77
2023-03-29T04:33:37.535Z,5.78
2023-03-29T04:34:40.588Z,5.79
2023-03-29T04:35:42.591Z,5.79
2023-03-29T04:36:51.217Z,5.86
2023-03-29T04:37:57.982Z,5.87
2023-03-29T04:39:01.867Z,5.87
2023-03-29T04:40:09.005Z,5.95
2023-03-29T04:41:24.932Z,6.02
2023-03-29T04:42:34.245Z,6.03
2023-03-29T04:43:39.713Z,6.02
2023-03-29T04:45:00.955Z,6.00
2023-03-29T04:46:25.474Z,6.02
2023-03-29T04:47:49.004Z,6.01
2023-03-29T04:48:54.109Z,6.02
2023-03-29T04:50:08.031Z,6.02
2023-03-29T04:51:14.512Z,6.02
2023-03-29T04:52:19.316Z,6.03
2023-03-29T04:53:22.931Z,6.04
2023-03-29T04:54:26.420Z,6.04
2023-03-29T04:55:47.904Z,6.07
2023-03-29T04:56:57.148Z,6.07
2023-03-29T04:58:38.297Z,6.09
2023-03-29T04:59:40.169Z,6.09
2023-03-29T05:00:58.919Z,6.08
2023-03-29T05:02:05.717Z,6.09
2023-03-29T05:03:11.440Z,6.09
2023-03-29T05:04:19.280Z,6.12
2023-03-29T05:05:36.989Z,6.13
2023-03-29T05:06:40.047Z,6.15
2023-03-29T05:07:45.210Z,6.14
2023-03-29T05:08:50.006Z,6.14
2023-03-29T05:09:56.866Z,6.14
2023-03-29T05:10:59.985Z,6.14
2023-03-29T05:12:03.676Z,6.15
2023-03-29T05:13:14.623Z,6.15
2023-03-29T05:14:16.486Z,6.14
2023-03-29T05:15:20.606Z,6.15
2023-03-29T05:16:26.342Z,6.17
2023-03-29T05:17:31.796Z,6.17
2023-03-29T05:18:41.820Z,6.18
2023-03-29T05:19:45.107Z,6.17
2023-03-29T05:20:47.979Z,6.18
2023-03-29T05:21:53.149Z,6.19
2023-03-29T05:23:00.474Z,6.20
2023-03-29T05:24:22.398Z,6.19
2023-03-29T05:25:33.553Z,6.21
2023-03-29T05:26:35.585Z,6.21
2023-03-29T05:27:39.935Z,6.22
2023-03-29T05:28:44.391Z,6.23
2023-03-29T05:29:48.968Z,6.23
2023-03-29T05:31:01.393Z,6.24
2023-03-29T05:32:05.209Z,6.25
2023-03-29T05:33:10.651Z,6.26
2023-03-29T05:34:13.800Z,6.27
2023-03-29T05:35:24.164Z,6.28
2023-03-29T05:36:26.363Z,6.28
2023-03-29T05:37:29.637Z,6.22
2023-03-29T05:38:38.173Z,6.16
2023-03-29T05:39:40.175Z,6.16
2023-03-29T05:40:43.196Z,6.27
2023-03-29T05:42:22.548Z,6.29
2023-03-29T05:43:30.917Z,6.30
2023-03-29T05:44:33.232Z,6.32
2023-03-29T05:45:46.038Z,6.32
2023-03-29T05:46:48.483Z,6.33
2023-03-29T05:47:53.119Z,6.33
2023-03-29T05:48:55.181Z,6.35
2023-03-29T05:50:03.841Z,6.36
2023-03-29T05:51:06.317Z,6.37
2023-03-29T05:52:09.326Z,6.38
2023-03-29T05:53:12.852Z,6.39
2023-03-29T05:54:17.169Z,6.39
2023-03-29T05:55:19.126Z,6.39
2023-03-29T05:56:22.440Z,6.40
2023-03-29T05:57:24.364Z,6.39
2023-03-29T05:58:28.458Z,6.40
2023-03-29T05:59:30.475Z,6.42
2023-03-29T06:00:36.881Z,6.42
2023-03-29T06:01:54.514Z,6.43
2023-03-29T06:03:06.450Z,6.43
2023-03-29T06:04:13.437Z,6.44
2023-03-29T06:05:25.027Z,6.43
2023-03-29T06:06:32.253Z,6.44
2023-03-29T06:07:38.209Z,6.43
2023-03-29T06:09:04.118Z,6.43
2023-03-29T06:10:24.907Z,6.44
2023-03-29T06:11:35.081Z,6.43
2023-03-29T06:13:00.141Z,6.45
2023-03-29T06:14:03.720Z,6.45
2023-03-29T06:15:08.513Z,6.44
2023-03-29T06:16:16.540Z,6.45
2023-03-29T06:17:19.821Z,6.45
2023-03-29T06:18:24.637Z,6.46
2023-03-29T06:19:26.473Z,6.43
2023-03-29T06:20:30.692Z,6.46
2023-03-29T06:21:39.313Z,6.47
2023-03-29T06:22:42.518Z,6.47
2023-03-29T06:23:47.705Z,6.47
2023-03-29T06:24:52.119Z,6.48
2023-03-29T06:26:02.479Z,6.49
2023-03-29T06:27:04.736Z,6.49
2023-03-29T06:28:07.798Z,6.49
2023-03-29T06:29:11.380Z,6.49
2023-03-29T06:30:17.178Z,6.50
2023-03-29T06:31:24.585Z,6.51
2023-03-29T06:32:28.273Z,6.50
2023-03-29T06:33:43.138Z,6.50
2023-03-29T06:35:08.187Z,6.51
2023-03-29T06:36:16.881Z,6.53
2023-03-29T06:37:19.404Z,6.54
2023-03-29T06:38:26.337Z,6.53
2023-03-29T06:39:53.837Z,6.54
2023-03-29T06:41:04.905Z,6.55
2023-03-29T06:42:25.466Z,6.56
2023-03-29T06:43:57.798Z,6.55
2023-03-29T06:45:07.695Z,6.58
2023-03-29T06:46:13.460Z,6.59
2023-03-29T06:47:45.475Z,6.60
2023-03-29T06:48:48.314Z,6.60
2023-03-29T06:49:51.308Z,6.66
2023-03-29T06:51:12.848Z,6.62
2023-03-29T06:52:15.832Z,6.63
2023-03-29T06:53:22.073Z,6.64
2023-03-29T06:54:33.634Z,6.65
2023-03-29T06:55:37.844Z,6.69
2023-03-29T06:57:08.003Z,6.70
2023-03-29T06:58:11.077Z,6.72
2023-03-29T06:59:14.708Z,6.72
2023-03-29T07:00:35.770Z,6.75
2023-03-29T07:01:52.592Z,6.76
2023-03-29T07:03:08.034Z,6.76
2023-03-29T07:04:11.121Z,6.79
2023-03-29T07:05:32.424Z,6.80
2023-03-29T07:06:36.686Z,6.81
2023-03-29T07:07:53.685Z,6.83
2023-03-29T07:09:18.357Z,6.86
2023-03-29T07:10:44.077Z,6.88
2023-03-29T07:12:05.435Z,6.88
2023-03-29T07:13:11.047Z,6.90
2023-03-29T07:14:13.966Z,6.89
2023-03-29T07:15:16.239Z,6.89
2023-03-29T07:16:39.152Z,6.90
2023-03-29T07:17:55.134Z,6.90
2023-03-29T07:18:58.100Z,6.90
2023-03-29T07:20:33.741Z,6.90
2023-03-29T07:21:43.626Z,6.88
2023-03-29T07:22:48.215Z,6.92
2023-03-29T07:23:52.214Z,6.96
2023-03-29T07:24:54.328Z,6.98
2023-03-29T07:25:57.312Z,6.98
2023-03-29T07:27:04.544Z,7.01
2023-03-29T07:28:11.215Z,7.01
2023-03-29T07:29:14.637Z,7.02
2023-03-29T07:30:19.233Z,7.02
2023-03-29T07:31:22.236Z,7.04
2023-03-29T07:32:31.241Z,7.05
2023-03-29T07:33:55.844Z,7.08
2023-03-29T07:34:59.125Z,7.11
2023-03-29T07:36:09.238Z,7.14
2023-03-29T07:37:11.335Z,7.14
2023-03-29T07:38:17.145Z,7.16
2023-03-29T07:39:26.158Z,7.17
2023-03-29T07:40:51.752Z,7.17
2023-03-29T07:42:12.210Z,7.17
2023-03-29T07:43:18.290Z,7.18
2023-03-29T07:44:21.616Z,7.19
2023-03-29T07:45:28.166Z,7.20
2023-03-29T07:46:44.940Z,7.19
2023-03-29T07:47:47.504Z,7.22
2023-03-29T07:48:50.475Z,7.20
2023-03-29T07:49:52.377Z,7.19
2023-03-29T07:50:55.885Z,7.20
2023-03-29T07:52:03.788Z,7.22
2023-03-29T07:53:07.306Z,7.23
2023-03-29T07:54:10.961Z,7.22
2023-03-29T07:55:16.423Z,7.23
2023-03-29T07:56:36.408Z,7.24
2023-03-29T07:57:53.813Z,7.24
2023-03-29T07:58:58.313Z,7.28
2023-03-29T08:00:00.500Z,7.30
2023-03-29T08:01:19.699Z,7.30
2023-03-29T08:02:43.960Z,7.28
2023-03-29T08:03:46.911Z,7.30
2023-03-29T08:04:49.923Z,7.30
2023-03-29T08:05:51.961Z,7.29
2023-03-29T08:06:55.260Z,7.30
2023-03-29T08:08:02.713Z,7.30
2023-03-29T08:09:13.652Z,7.30
2023-03-29T08:10:21.471Z,7.27
2023-03-29T08:11:38.549Z,7.28
2023-03-29T08:12:50.198Z,7.29
2023-03-29T08:13:56.261Z,7.28
2023-03-29T08:15:28.793Z,7.27
2023-03-29T08:16:31.780Z,7.28
2023-03-29T08:17:40.833Z,7.26
2023-03-29T08:18:43.799Z,7.26
2023-03-29T08:19:50.992Z,7.25
2023-03-29T08:20:58.136Z,7.26
2023-03-29T08:22:00.986Z,7.24
2023-03-29T08:23:11.383Z,7.25
2023-03-29T08:24:33.045Z,7.73
2023-03-29T08:25:41.401Z,8.17
2023-03-29T08:26:44.965Z,8.32
2023-03-29T08:27:50.001Z,8.33
2023-03-29T08:29:02.812Z,8.28
2023-03-29T08:30:08.225Z,8.18
2023-03-29T08:31:13.774Z,8.09
2023-03-29T08:32:20.393Z,7.98
2023-03-29T08:33:22.442Z,7.90
2023-03-29T08:34:35.556Z,7.83
2023-03-29T08:35:58.707Z,7.74
2023-03-29T08:37:05.071Z,7.69
2023-03-29T08:38:14.637Z,7.64
2023-03-29T08:39:18.495Z,7.62
2023-03-29T08:40:31.712Z,7.59
2023-03-29T08:41:56.478Z,7.59
2023-03-29T08:43:29.957Z,7.58
2023-03-29T08:45:07.852Z,7.61
2023-03-29T08:46:23.747Z,7.64
2023-03-29T08:47:35.229Z,7.71
2023-03-29T08:48:42.383Z,7.80
2023-03-29T08:49:49.673Z,7.85
2023-03-29T08:50:57.285Z,7.91
2023-03-29T08:52:03.680Z,7.91
2023-03-29T08:53:12.907Z,7.96
2023-03-29T08:54:56.698Z,7.95
2023-03-29T08:56:31.536Z,7.96
2023-03-29T08:57:47.431Z,7.93
2023-03-29T08:58:58.949Z,7.89
2023-03-29T09:00:10.555Z,7.90
2023-03-29T09:01:16.256Z,7.90
2023-03-29T09:02:38.129Z,7.92
2023-03-29T09:03:48.388Z,7.93
2023-03-29T09:05:09.532Z,7.95
2023-03-29T09:06:23.063Z,7.94
2023-03-29T09:07:30.787Z,7.95
2023-03-29T09:08:37.308Z,7.96
2023-03-29T09:09:39.301Z,7.96
2023-03-29T09:11:12.540Z,7.96
2023-03-29T09:12:28.193Z,7.96
2023-03-29T09:13:40.644Z,7.98
2023-03-29T09:14:56.762Z,8.00
2023-03-29T09:16:08.436Z,7.98
2023-03-29T09:17:28.573Z,7.98
2023-03-29T09:18:40.338Z,7.99
2023-03-29T09:19:49.133Z,7.99
2023-03-29T09:20:58.087Z,8.00
2023-03-29T09:22:10.412Z,8.01
2023-03-29T09:23:29.455Z,8.00
2023-03-29T09:24:59.924Z,8.00
2023-03-29T09:26:09.730Z,8.00
2023-03-29T09:27:35.413Z,7.99
2023-03-29T09:29:10.299Z,7.98
2023-03-29T09:30:21.379Z,7.98
2023-03-29T09:31:33.607Z,7.99
2023-03-29T09:32:45.246Z,7.99
2023-03-29T09:33:54.338Z,8.01
2023-03-29T09:35:10.530Z,8.03
2023-03-29T09:36:18.326Z,8.05
2023-03-29T09:37:30.183Z,8.06
2023-03-29T09:38:43.370Z,8.06
2023-03-29T09:39:45.908Z,8.03
2023-03-29T09:40:56.652Z,8.06
2023-03-29T09:42:04.804Z,8.05
2023-03-29T09:43:11.303Z,8.09
2023-03-29T09:44:30.376Z,8.06
2023-03-29T09:45:40.246Z,8.13
2023-03-29T09:46:47.458Z,8.15
2023-03-29T09:47:56.972Z,8.15
2023-03-29T09:49:03.057Z,8.18
2023-03-29T09:50:19.829Z,8.24
2023-03-29T09:51:35.651Z,8.22
2023-03-29T09:52:38.702Z,8.26
2023-03-29T09:53:52.247Z,8.25
2023-03-29T09:55:16.078Z,8.27
2023-03-29T09:56:32.750Z,8.27
2023-03-29T09:57:46.629Z,8.28
2023-03-29T09:58:51.284Z,8.28
2023-03-29T09:59:55.981Z,8.28
2023-03-29T10:01:00.688Z,8.31
2023-03-29T10:02:08.609Z,8.32
2023-03-29T10:03:19.788Z,8.34
2023-03-29T10:04:27.943Z,8.35
2023-03-29T10:05:37.847Z,8.35
2023-03-29T10:06:47.483Z,8.36
2023-03-29T10:07:53.759Z,8.39
2023-03-29T10:08:58.968Z,8.38
2023-03-29T10:10:10.477Z,8.40
2023-03-29T10:11:22.113Z,8.41
2023-03-29T10:12:24.044Z,8.44
2023-03-29T10:13:30.618Z,8.45
2023-03-29T10:14:35.421Z,8.46
2023-03-29T10:15:38.333Z,8.47
2023-03-29T10:16:45.270Z,8.45
2023-03-29T10:17:47.711Z,8.45
2023-03-29T10:18:54.596Z,8.47
2023-03-29T10:20:00.934Z,8.46
2023-03-29T10:21:07.362Z,8.46
2023-03-29T10:22:18.924Z,8.45
2023-03-29T10:23:21.708Z,8.44
2023-03-29T10:24:26.527Z,8.45
2023-03-29T10:25:31.525Z,8.46
2023-03-29T10:26:36.894Z,8.47
2023-03-29T10:27:43.515Z,8.47
2023-03-29T10:28:46.456Z,8.47
2023-03-29T10:29:48.487Z,8.48
2023-03-29T10:30:56.327Z,8.49
2023-03-29T10:31:59.213Z,8.51
2023-03-29T10:33:01.648Z,8.50
2023-03-29T10:34:08.973Z,8.52
2023-03-29T10:35:24.929Z,8.56
2023-03-29T10:36:28.543Z,8.58
2023-03-29T10:37:31.586Z,8.61
2023-03-29T10:38:36.522Z,8.65
2023-03-29T10:39:40.701Z,8.66
2023-03-29T10:40:45.381Z,8.69
2023-03-29T10:41:53.184Z,8.73
2023-03-29T10:42:58.712Z,8.75
2023-03-29T10:44:02.431Z,8.76
2023-03-29T10:45:05.103Z,8.78
2023-03-29T10:46:10.948Z,8.80
2023-03-29T10:47:16.332Z,8.82
2023-03-29T10:48:19.772Z,8.83
2023-03-29T10:49:25.461Z,8.85
2023-03-29T10:50:33.405Z,8.86
2023-03-29T10:51:36.591Z,8.88
2023-03-29T10:52:40.267Z,8.89
2023-03-29T10:53:43.255Z,8.90
2023-03-29T10:54:47.356Z,8.91
2023-03-29T10:56:01.773Z,8.92
2023-03-29T10:57:09.308Z,8.94
2023-03-29T10:58:30.362Z,8.95
2023-03-29T10:59:40.782Z,8.97
2023-03-29T11:00:50.976Z,8.99
2023-03-29T11:02:26.003Z,8.99
2023-03-29T11:03:53.814Z,8.97
2023-03-29T11:05:10.526Z,8.99
2023-03-29T11:06:20.951Z,9.01
2023-03-29T11:07:29.913Z,9.01
2023-03-29T11:08:48.102Z,9.06
2023-03-29T11:10:00.933Z,9.08
2023-03-29T11:11:16.476Z,9.11
2023-03-29T11:12:26.858Z,9.11
2023-03-29T11:13:38.885Z,9.16
2023-03-29T11:14:52.346Z,9.18
2023-03-29T11:16:09.639Z,9.22
2023-03-29T11:17:28.361Z,9.20
2023-03-29T11:18:49.780Z,9.20
2023-03-29T11:20:04.514Z,9.23
2023-03-29T11:21:19.736Z,9.26
2023-03-29T11:22:31.226Z,9.30
2023-03-29T11:23:46.029Z,9.30
2023-03-29T11:25:08.066Z,9.27
2023-03-29T11:26:18.152Z,9.28
2023-03-29T11:27:29.819Z,9.28
2023-03-29T11:28:42.203Z,9.26
2023-03-29T11:29:54.478Z,9.29
2023-03-29T11:31:05.582Z,9.28
2023-03-29T11:32:15.883Z,9.31
2023-03-29T11:33:33.958Z,9.28
2023-03-29T11:34:52.478Z,9.31
2023-03-29T11:36:06.326Z,9.37
2023-03-29T11:37:20.368Z,9.35
2023-03-29T11:38:32.331Z,9.38
2023-03-29T11:39:45.967Z,9.41
2023-03-29T11:40:57.685Z,9.42
2023-03-29T11:42:09.276Z,9.41
2023-03-29T11:43:18.968Z,9.37
2023-03-29T11:44:25.403Z,9.37
2023-03-29T11:45:30.108Z,9.37
2023-03-29T11:46:37.845Z,9.43
2023-03-29T11:47:42.931Z,9.42
2023-03-29T11:48:51.492Z,9.43
2023-03-29T11:49:57.412Z,9.45
2023-03-29T11:51:07.080Z,9.49
2023-03-29T11:52:15.958Z,9.50
2023-03-29T11:53:25.537Z,9.51
2023-03-29T11:54:34.470Z,9.53
2023-03-29T11:55:39.344Z,9.53
2023-03-29T11:56:45.993Z,9.54
2023-03-29T11:57:53.778Z,9.56
2023-03-29T11:59:02.979Z,9.58
2023-03-29T12:00:12.407Z,9.61
2023-03-29T12:01:19.945Z,9.62
2023-03-29T12:02:30.803Z,9.52
2023-03-29T12:03:38.665Z,9.53
2023-03-29T12:04:47.779Z,9.54
2023-03-29T12:05:56.783Z,9.53
2023-03-29T12:07:10.380Z,9.56
2023-03-29T12:08:16.589Z,9.56
2023-03-29T12:09:28.983Z,9.57
2023-03-29T12:10:36.334Z,9.59
2023-03-29T12:11:43.758Z,9.59
2023-03-29T12:12:50.365Z,9.61
2023-03-29T12:13:59.002Z,9.59
2023-03-29T12:15:06.894Z,9.63
2023-03-29T12:16:16.610Z,9.63
2023-03-29T12:17:24.077Z,9.63
2023-03-29T12:18:31.308Z,9.63
2023-03-29T12:19:41.806Z,9.63
2023-03-29T12:20:50.849Z,9.63
2023-03-29T12:21:56.078Z,9.66
2023-03-29T12:23:01.690Z,9.67
2023-03-29T12:24:03.964Z,9.67
2023-03-29T12:25:11.901Z,9.68
2023-03-29T12:26:29.403Z,9.67
2023-03-29T12:27:38.372Z,9.71
2023-03-29T12:29:05.301Z,9.78
2023-03-29T12:30:34.447Z,9.79
2023-03-29T12:31:43.549Z,9.80
2023-03-29T12:33:00.597Z,9.82
2023-03-29T12:34:49.140Z,9.83
2023-03-29T12:36:30.592Z,9.85
2023-03-29T12:38:17.934Z,9.85
2023-03-29T12:40:11.808Z,9.82
2023-03-29T12:41:38.366Z,9.80
2023-03-29T12:43:07.438Z,9.78
2023-03-29T12:44:34.072Z,9.76
2023-03-29T12:45:54.586Z,9.76
2023-03-29T12:47:00.292Z,9.77
2023-03-29T12:48:02.859Z,9.78
2023-03-29T12:49:12.270Z,9.80
2023-03-29T12:50:28.572Z,9.82
2023-03-29T12:51:33.553Z,9.78
2023-03-29T12:52:37.701Z,9.80
2023-03-29T12:53:44.567Z,9.86
2023-03-29T12:54:53.438Z,9.90
2023-03-29T12:56:09.871Z,9.91
2023-03-29T12:57:22.496Z,9.94
2023-03-29T12:58:42.736Z,9.94
2023-03-29T12:59:46.875Z,9.95
2023-03-29T13:01:05.777Z,9.99
2023-03-29T13:02:28.230Z,10.02
2023-03-29T13:03:42.449Z,10.04
2023-03-29T13:04:52.386Z,10.05
2023-03-29T13:06:01.347Z,10.08
2023-03-29T13:07:07.140Z,10.12
2023-03-29T13:08:26.742Z,10.17
2023-03-29T13:09:32.327Z,10.19
2023-03-29T13:10:39.060Z,10.19
2023-03-29T13:11:41.373Z,10.23
2023-03-29T13:12:46.519Z,10.24
2023-03-29T13:13:50.953Z,10.25
2023-03-29T13:14:56.654Z,10.24
2023-03-29T13:16:11.995Z,10.26
2023-03-29T13:17:25.682Z,10.26
2023-03-29T13:18:50.371Z,10.26
2023-03-29T13:20:14.282Z,10.25
2023-03-29T13:21:24.468Z,10.24
2023-03-29T13:22:42.612Z,10.24
2023-03-29T13:23:54.412Z,10.26
2023-03-29T13:25:17.920Z,10.31
2023-03-29T13:26:37.128Z,10.33
2023-03-29T13:27:50.759Z,10.33
2023-03-29T13:29:15.440Z,10.39
2023-03-29T13:30:28.442Z,10.43
2023-03-29T13:31:37.221Z,10.48
2023-03-29T13:32:49.976Z,10.49
2023-03-29T13:34:02.172Z,10.46
2023-03-29T13:35:14.786Z,10.48
2023-03-29T13:36:33.109Z,10.51
2023-03-29T13:37:48.705Z,10.53
2023-03-29T13:38:55.332Z,10.53
2023-03-29T13:39:58.348Z,10.55
2023-03-29T13:41:04.699Z,10.57
2023-03-29T13:42:19.729Z,10.55
2023-03-29T13:43:30.754Z,10.55
2023-03-29T13:44:43.530Z,10.59
2023-03-29T13:45:47.599Z,10.61
2023-03-29T13:47:01.912Z,10.60
2023-03-29T13:48:07.014Z,10.58
2023-03-29T13:49:19.833Z,10.55
2023-03-29T13:50:36.225Z,10.60
2023-03-29T13:51:41.151Z,10.63
2023-03-29T13:52:54.511Z,10.64
2023-03-29T13:54:01.666Z,10.64
2023-03-29T13:55:08.642Z,10.64
2023-03-29T13:56:21.110Z,10.62
2023-03-29T13:57:32.745Z,10.62
2023-03-29T13:58:42.743Z,10.65
2023-03-29T13:59:58.191Z,10.66
2023-03-29T14:01:08.290Z,10.64
2023-03-29T14:02:22.124Z,10.62
2023-03-29T14:03:29.830Z,10.62
2023-03-29T14:04:37.789Z,10.62
2023-03-29T14:05:43.346Z,10.63
2023-03-29T14:06:51.710Z,10.63
2023-03-29T14:07:55.686Z,10.62
2023-03-29T14:09:00.757Z,10.64
2023-03-29T14:10:04.819Z,10.64
2023-03-29T14:11:13.645Z,10.65
2023-03-29T14:12:19.170Z,10.66
2023-03-29T14:13:24.533Z,10.64
2023-03-29T14:14:30.597Z,10.67
2023-03-29T14:15:44.352Z,10.66
2023-03-29T14:16:46.475Z,10.65
2023-03-29T14:17:49.891Z,10.69
2023-03-29T14:18:52.806Z,10.74
2023-03-29T14:19:58.845Z,10.79
2023-03-29T14:21:02.725Z,10.81
2023-03-29T14:22:10.795Z,10.83
2023-03-29T14:23:20.694Z,10.83
2023-03-29T14:24:27.023Z,10.84
2023-03-29T14:25:30.638Z,10.83
2023-03-29T14:26:34.587Z,11.01
2023-03-29T14:27:38.864Z,11.40
2023-03-29T14:28:45.995Z,11.66
2023-03-29T14:29:51.105Z,11.67
2023-03-29T14:30:55.389Z,11.63
2023-03-29T14:31:58.294Z,11.50
2023-03-29T14:33:05.148Z,11.44
2023-03-29T14:34:14.119Z,11.35
2023-03-29T14:35:16.752Z,11.27
2023-03-29T14:36:19.915Z,11.20
2023-03-29T14:37:27.706Z,11.13
2023-03-29T14:38:32.028Z,11.07
2023-03-29T14:39:35.883Z,11.03
2023-03-29T14:40:38.816Z,10.99
2023-03-29T14:41:47.936Z,10.96
2023-03-29T14:42:52.507Z,10.93
2023-03-29T14:43:54.411Z,10.91
2023-03-29T14:45:00.010Z,10.92
2023-03-29T14:46:06.236Z,10.91
2023-03-29T14:47:15.185Z,10.92
2023-03-29T14:48:18.624Z,11.02
2023-03-29T14:49:22.912Z,11.06
2023-03-29T14:50:30.079Z,11.32
2023-03-29T14:51:32.570Z,11.63
2023-03-29T14:52:35.955Z,11.69
2023-03-29T14:53:40.614Z,11.66
2023-03-29T14:54:46.294Z,11.58
2023-03-29T14:55:52.369Z,11.48
2023-03-29T14:56:56.174Z,11.39
2023-03-29T14:58:00.309Z,11.31
2023-03-29T14:59:05.273Z,11.25
2023-03-29T15:00:22.168Z,11.17
2023-03-29T15:01:27.060Z,11.11
2023-03-29T15:02:32.424Z,10.94
2023-03-29T15:03:44.608Z,10.86
2023-03-29T15:04:56.885Z,10.80
2023-03-29T15:06:04.619Z,10.78
2023-03-29T15:07:08.363Z,10.75
2023-03-29T15:08:16.576Z,10.68
2023-03-29T15:09:25.482Z,10.66
2023-03-29T15:10:28.450Z,10.78
2023-03-29T15:11:32.011Z,10.78
2023-03-29T15:12:35.210Z,10.76
2023-03-29T15:13:42.224Z,10.71
2023-03-29T15:14:45.544Z,10.65
2023-03-29T15:15:52.428Z,10.62
2023-03-29T15:17:01.684Z,10.62